Observation data for Haskell on 09/11/2017      Previous  Date       Current Mesonet Observations  Soil Data  Daily Summary Page  Observations in Plain Language
KHA1 110500Z 12005KT 20/09 A3017 RMK A01 T01960090  RH  052%=      5-min Rain = 0
KHA1 110505Z 11004KT 19/09 A3017 RMK A01 T01940090  RH  052%=      5-min Rain = 0
KHA1 110510Z 11004KT 19/09 A3017 RMK A01 T01930090  RH  053%=      5-min Rain = 0
KHA1 110515Z 11004KT 19/09 A3017 RMK A01 T01920090  RH  053%=      5-min Rain = 0
KHA1 110520Z 11004KT 19/09 A3017 RMK A01 T01910090  RH  054%=      5-min Rain = 0
KHA1 110525Z 11004KT 19/09 A3017 RMK A01 T01890090  RH  054%=      5-min Rain = 0
KHA1 110530Z 11003KT 19/09 A3017 RMK A01 T01890090  RH  054%=      5-min Rain = 0
KHA1 110535Z 11003KT 19/09 A3017 RMK A01 T01890090  RH  054%=      5-min Rain = 0
KHA1 110540Z 10004KT 19/09 A3017 RMK A01 T01880090  RH  054%=      5-min Rain = 0
KHA1 110545Z 11004KT 19/09 A3017 RMK A01 T01880090  RH  055%=      5-min Rain = 0
KHA1 110550Z 11003KT 19/09 A3017 RMK A01 T01870091  RH  055%=      5-min Rain = 0
KHA1 110555Z 11003KT 19/09 A3017 RMK A01 T01860091  RH  056%=      5-min Rain = 0
KHA1 110600Z 11003KT 19/09 A3017 RMK A01 T01850092  RH  056%=      5-min Rain = 0
KHA1 110605Z 11004KT 19/09 A3017 RMK A01 T01850092  RH  057%=      5-min Rain = 0
KHA1 110610Z 11004KT 18/09 A3017 RMK A01 T01840093  RH  057%=      5-min Rain = 0
KHA1 110615Z 11004KT 18/09 A3017 RMK A01 T01840093  RH  057%=      5-min Rain = 0
KHA1 110620Z 11004KT 18/09 A3017 RMK A01 T01840093  RH  057%=      5-min Rain = 0
KHA1 110625Z 11004KT 18/09 A3017 RMK A01 T01830093  RH  058%=      5-min Rain = 0
KHA1 110630Z 12004KT 18/09 A3017 RMK A01 T01820093  RH  058%=      5-min Rain = 0
KHA1 110635Z 12004KT 18/09 A3017 RMK A01 T01820093  RH  058%=      5-min Rain = 0
KHA1 110640Z 12004KT 18/09 A3017 RMK A01 T01820093  RH  058%=      5-min Rain = 0
KHA1 110645Z 12004KT 18/09 A3017 RMK A01 T01810093  RH  058%=      5-min Rain = 0
KHA1 110650Z 12004KT 18/09 A3017 RMK A01 T01820094  RH  058%=      5-min Rain = 0
KHA1 110655Z 12004KT 18/09 A3017 RMK A01 T01820094  RH  058%=      5-min Rain = 0
KHA1 110700Z 12004KT 18/09 A3017 RMK A01 T01820094  RH  058%=      5-min Rain = 0
KHA1 110705Z 12004KT 18/09 A3017 RMK A01 T01820094  RH  058%=      5-min Rain = 0
KHA1 110710Z 12004KT 18/09 A3017 RMK A01 T01820093  RH  058%=      5-min Rain = 0
KHA1 110715Z 12004KT 18/09 A3017 RMK A01 T01820094  RH  058%=      5-min Rain = 0
KHA1 110720Z 12004KT 18/09 A3017 RMK A01 T01810094  RH  058%=      5-min Rain = 0
KHA1 110725Z 12003KT 18/09 A3017 RMK A01 T01800094  RH  059%=      5-min Rain = 0
KHA1 110730Z 12004KT 18/10 A3017 RMK A01 T01800095  RH  059%=      5-min Rain = 0
KHA1 110735Z 13004KT 18/09 A3017 RMK A01 T01800094  RH  059%=      5-min Rain = 0
KHA1 110740Z 13004KT 18/09 A3017 RMK A01 T01800094  RH  059%=      5-min Rain = 0
KHA1 110745Z 12004KT 18/10 A3017 RMK A01 T01800095  RH  059%=      5-min Rain = 0
KHA1 110750Z 13003KT 18/10 A3016 RMK A01 T01790095  RH  060%=      5-min Rain = 0
KHA1 110755Z 13004KT 18/09 A3016 RMK A01 T01780094  RH  060%=      5-min Rain = 0
KHA1 110800Z 14003KT 18/10 A3016 RMK A01 T01780096  RH  060%=      5-min Rain = 0
KHA1 110805Z 14003KT 18/10 A3016 RMK A01 T01780097  RH  061%=      5-min Rain = 0
KHA1 110810Z 14003KT 18/10 A3016 RMK A01 T01790098  RH  061%=      5-min Rain = 0
KHA1 110815Z 14003KT 18/10 A3016 RMK A01 T01780097  RH  061%=      5-min Rain = 0
KHA1 110820Z 14003KT 18/10 A3016 RMK A01 T01770097  RH  061%=      5-min Rain = 0
KHA1 110825Z 15003KT 18/10 A3016 RMK A01 T01760098  RH  062%=      5-min Rain = 0
KHA1 110830Z 15003KT 18/10 A3016 RMK A01 T01750097  RH  062%=      5-min Rain = 0
KHA1 110835Z 15004KT 18/10 A3016 RMK A01 T01750099  RH  063%=      5-min Rain = 0
KHA1 110840Z 15004KT 18/10 A3016 RMK A01 T01760100  RH  063%=      5-min Rain = 0
KHA1 110845Z 15003KT 18/10 A3016 RMK A01 T01770099  RH  062%=      5-min Rain = 0
KHA1 110850Z 15003KT 18/10 A3016 RMK A01 T01770100  RH  063%=      5-min Rain = 0
KHA1 110855Z 16003KT 18/10 A3016 RMK A01 T01760100  RH  063%=      5-min Rain = 0
KHA1 110900Z 15003KT 17/10 A3015 RMK A01 T01740100  RH  064%=      5-min Rain = 0
KHA1 110905Z 15003KT 17/10 A3015 RMK A01 T01720100  RH  065%=      5-min Rain = 0
KHA1 110910Z 15003KT 17/10 A3015 RMK A01 T01720100  RH  064%=      5-min Rain = 0
KHA1 110915Z 16004KT 17/10 A3015 RMK A01 T01720101  RH  065%=      5-min Rain = 0
KHA1 110920Z 16004KT 17/10 A3015 RMK A01 T01720098  RH  064%=      5-min Rain = 0
KHA1 110925Z 16004KT 17/10 A3015 RMK A01 T01700096  RH  064%=      5-min Rain = 0
KHA1 110930Z 15004KT 17/10 A3015 RMK A01 T01690099  RH  065%=      5-min Rain = 0
KHA1 110935Z 16004KT 17/10 A3015 RMK A01 T01710100  RH  065%=      5-min Rain = 0
KHA1 110940Z 16003KT 17/10 A3015 RMK A01 T01690097  RH  065%=      5-min Rain = 0
KHA1 110945Z 15004KT 17/10 A3015 RMK A01 T01700101  RH  066%=      5-min Rain = 0
KHA1 110950Z 15003KT 17/10 A3015 RMK A01 T01720101  RH  065%=      5-min Rain = 0
KHA1 110955Z 15003KT 17/10 A3015 RMK A01 T01710100  RH  065%=      5-min Rain = 0
KHA1 111000Z 15003KT 17/10 A3016 RMK A01 T01660095  RH  065%=      5-min Rain = 0
KHA1 111005Z 15003KT 16/09 A3016 RMK A01 T01610094  RH  067%=      5-min Rain = 0
KHA1 111010Z 15002KT 16/09 A3016 RMK A01 T01570094  RH  068%=      5-min Rain = 0
KHA1 111015Z 13002KT 16/10 A3016 RMK A01 T01560096  RH  070%=      5-min Rain = 0
KHA1 111020Z 13002KT 15/10 A3016 RMK A01 T01510095  RH  071%=      5-min Rain = 0
KHA1 111025Z 13002KT 15/10 A3016 RMK A01 T01460095  RH  074%=      5-min Rain = 0
KHA1 111030Z 13001KT 14/10 A3016 RMK A01 T01420097  RH  076%=      5-min Rain = 0
KHA1 111035Z 15001KT 14/10 A3016 RMK A01 T01440098  RH  077%=      5-min Rain = 0
KHA1 111040Z 16001KT 14/10 A3016 RMK A01 T01430096  RH  076%=      5-min Rain = 0
KHA1 111045Z 16001KT 14/10 A3016 RMK A01 T01410096  RH  077%=      5-min Rain = 0
KHA1 111050Z 17002KT 14/10 A3016 RMK A01 T01400097  RH  078%=      5-min Rain = 0
KHA1 111055Z 18002KT 14/10 A3017 RMK A01 T01400097  RH  078%=      5-min Rain = 0
KHA1 111100Z 20002KT 14/10 A3017 RMK A01 T01420098  RH  078%=      5-min Rain = 0
KHA1 111105Z 20002KT 14/10 A3017 RMK A01 T01390097  RH  078%=      5-min Rain = 0
KHA1 111110Z 20002KT 14/10 A3017 RMK A01 T01370097  RH  079%=      5-min Rain = 0
KHA1 111115Z 19002KT 14/10 A3017 RMK A01 T01370099  RH  080%=      5-min Rain = 0
KHA1 111120Z 18002KT 14/10 A3016 RMK A01 T01360098  RH  080%=      5-min Rain = 0
KHA1 111125Z 18002KT 14/10 A3017 RMK A01 T01370099  RH  081%=      5-min Rain = 0
KHA1 111130Z 19002KT 14/10 A3017 RMK A01 T01400100  RH  080%=      5-min Rain = 0
KHA1 111135Z 19002KT 14/10 A3017 RMK A01 T01400098  RH  078%=      5-min Rain = 0
KHA1 111140Z 20002KT 14/10 A3017 RMK A01 T01380098  RH  079%=      5-min Rain = 0
KHA1 111145Z 20002KT 14/10 A3017 RMK A01 T01370099  RH  080%=      5-min Rain = 0
KHA1 111150Z 21003KT 14/10 A3017 RMK A01 T01360099  RH  081%=      5-min Rain = 0
KHA1 111155Z 21003KT 14/10 A3017 RMK A01 T01380099  RH  080%=      5-min Rain = 0
KHA1 111200Z 21003KT 14/10 A3017 RMK A01 T01390097  RH  078%=      5-min Rain = 0
KHA1 111205Z 21003KT 14/10 A3017 RMK A01 T01410096  RH  077%=      5-min Rain = 0
KHA1 111210Z 21003KT 14/10 A3017 RMK A01 T01420096  RH  076%=      5-min Rain = 0
KHA1 111215Z 21003KT 14/10 A3017 RMK A01 T01430095  RH  075%=      5-min Rain = 0
KHA1 111220Z 22003KT 14/10 A3017 RMK A01 T01440095  RH  075%=      5-min Rain = 0
KHA1 111225Z 23003KT 14/09 A3017 RMK A01 T01430094  RH  075%=      5-min Rain = 0
KHA1 111230Z 24003KT 14/09 A3017 RMK A01 T01410093  RH  076%=      5-min Rain = 0
KHA1 111235Z 22002KT 14/10 A3017 RMK A01 T01400095  RH  077%=      5-min Rain = 0
KHA1 111240Z 23002KT 14/10 A3017 RMK A01 T01430096  RH  076%=      5-min Rain = 0
KHA1 111245Z 24002KT 15/10 A3017 RMK A01 T01450096  RH  075%=      5-min Rain = 0
KHA1 111250Z 24002KT 15/10 A3018 RMK A01 T01460096  RH  074%=      5-min Rain = 0
KHA1 111255Z 24002KT 15/10 A3018 RMK A01 T01470096  RH  074%=      5-min Rain = 0
KHA1 111300Z 25002KT 15/10 A3018 RMK A01 T01490097  RH  073%=      5-min Rain = 0
KHA1 111305Z 25002KT 15/10 A3018 RMK A01 T01510098  RH  073%=      5-min Rain = 0
KHA1 111310Z 26002KT 15/10 A3018 RMK A01 T01530101  RH  073%=      5-min Rain = 0
KHA1 111315Z 26002KT 16/10 A3018 RMK A01 T01550103  RH  073%=      5-min Rain = 0
KHA1 111320Z 26002KT 16/11 A3018 RMK A01 T01580106  RH  074%=      5-min Rain = 0
KHA1 111325Z 26002KT 16/11 A3018 RMK A01 T01610110  RH  074%=      5-min Rain = 0
KHA1 111330Z 26002KT 16/11 A3018 RMK A01 T01630110  RH  073%=      5-min Rain = 0
KHA1 111335Z 26002KT 17/11 A3019 RMK A01 T01680112  RH  072%=      5-min Rain = 0
KHA1 111340Z 25001KT 17/11 A3019 RMK A01 T01730114  RH  071%=      5-min Rain = 0
KHA1 111345Z 24001KT 18/12 A3019 RMK A01 T01790118  RH  070%=      5-min Rain = 0
KHA1 111350Z 27000KT 19/12 A3019 RMK A01 T01860121  RH  068%=      5-min Rain = 0
KHA1 111355Z 27001KT 19/12 A3019 RMK A01 T01910122  RH  067%=      5-min Rain = 0
KHA1 111400Z 30001KT 20/12 A3019 RMK A01 T01950121  RH  065%=      5-min Rain = 0
KHA1 111405Z 32001KT 20/12 A3019 RMK A01 T01980123  RH  064%=      5-min Rain = 0
KHA1 111410Z 32001KT 20/12 A3019 RMK A01 T02000123  RH  063%=      5-min Rain = 0
KHA1 111415Z 29002KT 20/12 A3019 RMK A01 T02020122  RH  062%=      5-min Rain = 0
KHA1 111420Z 22002KT 21/11 A3019 RMK A01 T02050112  RH  057%=      5-min Rain = 0
KHA1 111425Z 27002KT 21/12 A302 RMK A01 T02120116  RH  056%=      5-min Rain = 0
KHA1 111430Z 23002KT 21/11 A302 RMK A01 T02140114  RH  055%=      5-min Rain = 0
KHA1 111435Z 23003KT 22/11 A302 RMK A01 T02170109  RH  052%=      5-min Rain = 0
KHA1 111440Z 22004KT 22/11 A302 RMK A01 T02170105  RH  051%=      5-min Rain = 0
KHA1 111445Z 22003KT 22/11 A302 RMK A01 T02190107  RH  051%=      5-min Rain = 0
KHA1 111450Z 22004KT 22/11 A302 RMK A01 T02200105  RH  050%=      5-min Rain = 0
KHA1 111455Z 22003KT 22/11 A302 RMK A01 T02210105  RH  049%=      5-min Rain = 0
KHA1 111500Z 21003KT 22/11 A302 RMK A01 T02240106  RH  049%=      5-min Rain = 0
KHA1 111505Z 22004KT 22/11 A302 RMK A01 T02240105  RH  048%=      5-min Rain = 0
KHA1 111510Z 21004KT 22/10 A302 RMK A01 T02240104  RH  048%=      5-min Rain = 0
KHA1 111515Z 21004KT 23/11 A302 RMK A01 T02270107  RH  048%=      5-min Rain = 0
KHA1 111520Z 20004KT 23/11 A302 RMK A01 T02290106  RH  047%=      5-min Rain = 0
KHA1 111525Z 21004KT 23/11 A302 RMK A01 T02320106  RH  047%=      5-min Rain = 0
KHA1 111530Z 22005KT 23/11 A302 RMK A01 T02330105  RH  046%=      5-min Rain = 0
KHA1 111535Z 21003KT 24/11 A302 RMK A01 T02350105  RH  045%=      5-min Rain = 0
KHA1 111540Z 19004KT 24/10 A302 RMK A01 T02370104  RH  044%=      5-min Rain = 0
KHA1 111545Z 20003KT 24/10 A302 RMK A01 T02390102  RH  043%=      5-min Rain = 0
KHA1 111550Z 20004KT 24/10 A302 RMK A01 T02430104  RH  043%=      5-min Rain = 0
KHA1 111555Z 19003KT 24/10 A302 RMK A01 T02440103  RH  042%=      5-min Rain = 0
KHA1 111600Z 19003KT 24/10 A3019 RMK A01 T02440098  RH  041%=      5-min Rain = 0
KHA1 111605Z 21003KT 25/10 A3019 RMK A01 T02450101  RH  041%=      5-min Rain = 0
KHA1 111610Z 23003KT 25/10 A3019 RMK A01 T02480101  RH  041%=      5-min Rain = 0
KHA1 111615Z 19002KT 25/10 A3019 RMK A01 T02480096  RH  039%=      5-min Rain = 0
KHA1 111620Z 28002KT 25/10 A3019 RMK A01 T02530100  RH  040%=      5-min Rain = 0
KHA1 111625Z 28002KT 26/10 A3019 RMK A01 T02550100  RH  039%=      5-min Rain = 0
KHA1 111630Z 27002KT 26/10 A3019 RMK A01 T02550098  RH  038%=      5-min Rain = 0
KHA1 111635Z 26004KT 26/10 A3018 RMK A01 T02560098  RH  038%=      5-min Rain = 0
KHA1 111640Z 26003KT 26/10 A3018 RMK A01 T02560097  RH  038%=      5-min Rain = 0
KHA1 111645Z 27002KT 26/10 A3018 RMK A01 T02570098  RH  038%=      5-min Rain = 0
KHA1 111650Z 27002KT 26/10 A3018 RMK A01 T02600095  RH  037%=      5-min Rain = 0
KHA1 111655Z 31004KT 26/10 A3018 RMK A01 T02600099  RH  037%=      5-min Rain = 0
KHA1 111700Z 35005KT 26/10 A3018 RMK A01 T02590096  RH  037%=      5-min Rain = 0
KHA1 111705Z 36002KT 26/09 A3017 RMK A01 T02590094  RH  036%=      5-min Rain = 0
KHA1 111710Z 33004KT 26/10 A3017 RMK A01 T02630096  RH  036%=      5-min Rain = 0
KHA1 111715Z 33002KT 27/09 A3017 RMK A01 T02650092  RH  035%=      5-min Rain = 0
KHA1 111720Z 33002KT 27/09 A3017 RMK A01 T02650089  RH  034%=      5-min Rain = 0
KHA1 111725Z 26002KT 27/09 A3017 RMK A01 T02650091  RH  034%=      5-min Rain = 0
KHA1 111730Z 02004KT 27/09 A3017 RMK A01 T02670088  RH  033%=      5-min Rain = 0
KHA1 111735Z 35003KT 27/09 A3017 RMK A01 T02680090  RH  033%=      5-min Rain = 0
KHA1 111740Z 34004KT 27/09 A3017 RMK A01 T02710090  RH  033%=      5-min Rain = 0
KHA1 111745Z 29003KT 27/09 A3017 RMK A01 T02670090  RH  034%=      5-min Rain = 0
KHA1 111750Z 30004KT 27/09 A3016 RMK A01 T02660090  RH  034%=      5-min Rain = 0
KHA1 111755Z 27003KT 27/09 A3016 RMK A01 T02670086  RH  033%=      5-min Rain = 0
KHA1 111800Z 31003KT 27/09 A3016 RMK A01 T02680091  RH  034%=      5-min Rain = 0
KHA1 111805Z 05001KT 27/09 A3016 RMK A01 T02730090  RH  033%=      5-min Rain = 0
KHA1 111810Z 02003KT 28/09 A3015 RMK A01 T02800094  RH  032%=      5-min Rain = 0
KHA1 111815Z 36003KT 28/09 A3015 RMK A01 T02760089  RH  032%=      5-min Rain = 0
KHA1 111820Z 32002KT 28/09 A3015 RMK A01 T02760090  RH  032%=      5-min Rain = 0
KHA1 111825Z 34006KT 28/09 A3015 RMK A01 T02760094  RH  033%=      5-min Rain = 0
KHA1 111830Z 35006KT 28/10 A3014 RMK A01 T02770097  RH  033%=      5-min Rain = 0
KHA1 111835Z 35004KT 28/09 A3014 RMK A01 T02790093  RH  032%=      5-min Rain = 0
KHA1 111840Z 35006KT 28/09 A3014 RMK A01 T02810093  RH  032%=      5-min Rain = 0
KHA1 111845Z 02004KT 28/09 A3013 RMK A01 T02820088  RH  031%=      5-min Rain = 0
KHA1 111850Z 09003KT 28/09 A3013 RMK A01 T02810086  RH  030%=      5-min Rain = 0
KHA1 111855Z 35005KT 29/09 A3013 RMK A01 T02850092  RH  031%=      5-min Rain = 0
KHA1 111900Z 35006KT 29/09 A3012 RMK A01 T02850092  RH  031%=      5-min Rain = 0
KHA1 111905Z 35005KT 29/09 A3012 RMK A01 T02860093  RH  031%=      5-min Rain = 0
KHA1 111910Z 34005G11KT 29/09 A3012 RMK A01 T02860092  RH  031%=      5-min Rain = 0
KHA1 111915Z 34005KT 29/09 A3012 RMK A01 T02870090  RH  030%=      5-min Rain = 0
KHA1 111920Z 31004KT 29/09 A3011 RMK A01 T02860086  RH  029%=      5-min Rain = 0
KHA1 111925Z 01004KT 29/09 A3011 RMK A01 T02890089  RH  030%=      5-min Rain = 0
KHA1 111930Z 33004KT 29/09 A3011 RMK A01 T02910092  RH  030%=      5-min Rain = 0
KHA1 111935Z 32005KT 29/09 A3011 RMK A01 T02910093  RH  030%=      5-min Rain = 0
KHA1 111940Z 32006KT 29/09 A301 RMK A01 T02900092  RH  030%=      5-min Rain = 0
KHA1 111945Z 33007KT 29/10 A301 RMK A01 T02910098  RH  031%=      5-min Rain = 0
KHA1 111950Z 34006KT 29/09 A301 RMK A01 T02890092  RH  030%=      5-min Rain = 0
KHA1 111955Z 02008KT 29/09 A301 RMK A01 T02900092  RH  030%=      5-min Rain = 0
KHA1 112000Z 05006KT 29/09 A3009 RMK A01 T02880085  RH  029%=      5-min Rain = 0
KHA1 112005Z 11003KT 29/08 A3009 RMK A01 T02900082  RH  028%=      5-min Rain = 0
KHA1 112010Z 35004G10KT 29/09 A3009 RMK A01 T02920089  RH  029%=      5-min Rain = 0
KHA1 112015Z 01009KT 29/10 A3008 RMK A01 T02940097  RH  030%=      5-min Rain = 0
KHA1 112020Z 36008KT 29/10 A3008 RMK A01 T02920096  RH  030%=      5-min Rain = 0
KHA1 112025Z 35006KT 29/09 A3008 RMK A01 T02930092  RH  029%=      5-min Rain = 0
KHA1 112030Z 34005KT 30/10 A3008 RMK A01 T02950095  RH  030%=      5-min Rain = 0
KHA1 112035Z 34003KT 30/09 A3008 RMK A01 T02990089  RH  028%=      5-min Rain = 0
KHA1 112040Z 34002KT 30/09 A3007 RMK A01 T03020087  RH  027%=      5-min Rain = 0
KHA1 112045Z 00008G13KT 30/10 A3007 RMK A01 T03010096  RH  029%=      5-min Rain = 0
KHA1 112050Z 00008G13KT 30/09 A3007 RMK A01 T02950093  RH  029%=      5-min Rain = 0
KHA1 112055Z 34005KT 30/09 A3006 RMK A01 T02960092  RH  029%=      5-min Rain = 0
KHA1 112100Z 36006KT 30/09 A3006 RMK A01 T02980093  RH  029%=      5-min Rain = 0
KHA1 112105Z 02009KT 30/09 A3006 RMK A01 T02980088  RH  028%=      5-min Rain = 0
KHA1 112110Z 00006G11KT 30/08 A3006 RMK A01 T02960081  RH  027%=      5-min Rain = 0
KHA1 112115Z 01006KT 30/09 A3006 RMK A01 T02980086  RH  027%=      5-min Rain = 0
KHA1 112120Z 36007G12KT 30/09 A3005 RMK A01 T02970086  RH  028%=      5-min Rain = 0
KHA1 112125Z 01005KT 30/09 A3005 RMK A01 T02970086  RH  028%=      5-min Rain = 0
KHA1 112130Z 01007G12KT 30/09 A3005 RMK A01 T02970090  RH  028%=      5-min Rain = 0
KHA1 112135Z 01008KT 30/09 A3005 RMK A01 T02970088  RH  028%=      5-min Rain = 0
KHA1 112140Z 01006G11KT 30/09 A3004 RMK A01 T02950086  RH  028%=      5-min Rain = 0
KHA1 112145Z 00005KT 30/09 A3004 RMK A01 T02980087  RH  028%=      5-min Rain = 0
KHA1 112150Z 35004KT 30/09 A3004 RMK A01 T03000089  RH  028%=      5-min Rain = 0
KHA1 112155Z 35005KT 30/09 A3004 RMK A01 T02980089  RH  028%=      5-min Rain = 0
KHA1 112200Z 35004KT 30/09 A3004 RMK A01 T02980085  RH  027%=      5-min Rain = 0
KHA1 112205Z 01007KT 30/09 A3004 RMK A01 T02980088  RH  028%=      5-min Rain = 0
KHA1 112210Z 01005KT 30/08 A3004 RMK A01 T02980084  RH  027%=      5-min Rain = 0
KHA1 112215Z 02004KT 30/08 A3004 RMK A01 T02980084  RH  027%=      5-min Rain = 0
KHA1 112220Z 02002KT 30/08 A3004 RMK A01 T02990078  RH  026%=      5-min Rain = 0
KHA1 112225Z 00005KT 30/10 A3003 RMK A01 T03020096  RH  029%=      5-min Rain = 0
KHA1 112230Z 01008KT 30/10 A3003 RMK A01 T02950098  RH  030%=      5-min Rain = 0
KHA1 112235Z 01004KT 30/10 A3003 RMK A01 T02960096  RH  030%=      5-min Rain = 0
KHA1 112240Z 35004KT 30/09 A3003 RMK A01 T02990088  RH  028%=      5-min Rain = 0
KHA1 112245Z 31004KT 30/09 A3003 RMK A01 T02980093  RH  029%=      5-min Rain = 0
KHA1 112250Z 34001KT 30/09 A3003 RMK A01 T03030091  RH  028%=      5-min Rain = 0
KHA1 112255Z 04004KT 30/08 A3003 RMK A01 T03020078  RH  025%=      5-min Rain = 0
KHA1 112300Z 02007KT 30/08 A3003 RMK A01 T02990084  RH  027%=      5-min Rain = 0
KHA1 112305Z 01007KT 30/08 A3003 RMK A01 T02970084  RH  027%=      5-min Rain = 0
KHA1 112310Z 36005KT 29/09 A3003 RMK A01 T02930090  RH  029%=      5-min Rain = 0
KHA1 112315Z 02005KT 29/10 A3003 RMK A01 T02920098  RH  031%=      5-min Rain = 0
KHA1 112320Z 01005KT 29/10 A3003 RMK A01 T02920097  RH  031%=      5-min Rain = 0
KHA1 112325Z 35005KT 29/10 A3003 RMK A01 T02900103  RH  032%=      5-min Rain = 0
KHA1 112330Z 35005KT 29/10 A3003 RMK A01 T02880103  RH  033%=      5-min Rain = 0
KHA1 112335Z 03006KT 29/09 A3003 RMK A01 T02890093  RH  030%=      5-min Rain = 0
KHA1 112340Z 01008KT 29/10 A3003 RMK A01 T02870095  RH  031%=      5-min Rain = 0
KHA1 112345Z 01006KT 28/10 A3003 RMK A01 T02830096  RH  032%=      5-min Rain = 0
KHA1 112350Z 02005KT 28/11 A3003 RMK A01 T02810106  RH  035%=      5-min Rain = 0
KHA1 112355Z 04005KT 28/09 A3003 RMK A01 T02830088  RH  030%=      5-min Rain = 0
KHA1 120000Z 07007KT 29/08 A3003 RMK A01 T02880083  RH  028%=      5-min Rain = 0
KHA1 120005Z 08006KT 29/08 A3003 RMK A01 T02870084  RH  029%=      5-min Rain = 0
KHA1 120010Z 07007G12KT 29/08 A3002 RMK A01 T02860084  RH  029%=      5-min Rain = 0
KHA1 120015Z 06006KT 28/08 A3002 RMK A01 T02840084  RH  029%=      5-min Rain = 0
KHA1 120020Z 06007KT 28/08 A3002 RMK A01 T02820083  RH  030%=      5-min Rain = 0
KHA1 120025Z 06008KT 28/08 A3002 RMK A01 T02790083  RH  030%=      5-min Rain = 0
KHA1 120030Z 06008KT 28/08 A3002 RMK A01 T02780083  RH  030%=      5-min Rain = 0
KHA1 120035Z 06007KT 28/08 A3002 RMK A01 T02750082  RH  030%=      5-min Rain = 0
KHA1 120040Z 06007KT 27/08 A3002 RMK A01 T02730081  RH  031%=      5-min Rain = 0
KHA1 120045Z 07007KT 27/08 A3002 RMK A01 T02700081  RH  031%=      5-min Rain = 0
KHA1 120050Z 07007KT 27/08 A3003 RMK A01 T02670080  RH  031%=      5-min Rain = 0
KHA1 120055Z 07007KT 27/08 A3003 RMK A01 T02660080  RH  032%=      5-min Rain = 0
KHA1 120100Z 07006KT 26/08 A3003 RMK A01 T02630080  RH  032%=      5-min Rain = 0
KHA1 120105Z 07005KT 26/08 A3002 RMK A01 T02610079  RH  032%=      5-min Rain = 0
KHA1 120110Z 08005KT 26/08 A3002 RMK A01 T02580078  RH  033%=      5-min Rain = 0
KHA1 120115Z 08005KT 26/08 A3002 RMK A01 T02560079  RH  033%=      5-min Rain = 0
KHA1 120120Z 08005KT 26/08 A3002 RMK A01 T02550078  RH  033%=      5-min Rain = 0
KHA1 120125Z 08004KT 25/08 A3002 RMK A01 T02540078  RH  034%=      5-min Rain = 0
KHA1 120130Z 08005KT 25/08 A3002 RMK A01 T02500078  RH  034%=      5-min Rain = 0
KHA1 120135Z 08005KT 25/08 A3002 RMK A01 T02470079  RH  035%=      5-min Rain = 0
KHA1 120140Z 08004KT 24/08 A3002 RMK A01 T02440080  RH  036%=      5-min Rain = 0
KHA1 120145Z 08004KT 24/08 A3003 RMK A01 T02420080  RH  037%=      5-min Rain = 0
KHA1 120150Z 08005KT 24/08 A3003 RMK A01 T02410081  RH  037%=      5-min Rain = 0
KHA1 120155Z 08005KT 24/08 A3003 RMK A01 T02380081  RH  038%=      5-min Rain = 0
KHA1 120200Z 09005KT 24/08 A3003 RMK A01 T02360082  RH  038%=      5-min Rain = 0
KHA1 120205Z 09005KT 24/08 A3003 RMK A01 T02360082  RH  038%=      5-min Rain = 0
KHA1 120210Z 09004KT 24/08 A3003 RMK A01 T02380082  RH  038%=      5-min Rain = 0
KHA1 120215Z 09004KT 24/08 A3004 RMK A01 T02380083  RH  038%=      5-min Rain = 0
KHA1 120220Z 09004KT 24/08 A3004 RMK A01 T02370083  RH  038%=      5-min Rain = 0
KHA1 120225Z 09003KT 24/08 A3004 RMK A01 T02350084  RH  039%=      5-min Rain = 0
KHA1 120230Z 09003KT 23/08 A3004 RMK A01 T02330084  RH  040%=      5-min Rain = 0
KHA1 120235Z 09003KT 23/08 A3004 RMK A01 T02320084  RH  040%=      5-min Rain = 0
KHA1 120240Z 09003KT 23/08 A3004 RMK A01 T02310084  RH  040%=      5-min Rain = 0
KHA1 120245Z 09003KT 23/08 A3004 RMK A01 T02300084  RH  040%=      5-min Rain = 0
KHA1 120250Z 08003KT 23/08 A3004 RMK A01 T02290084  RH  041%=      5-min Rain = 0
KHA1 120255Z 08003KT 23/09 A3004 RMK A01 T02270085  RH  041%=      5-min Rain = 0
KHA1 120300Z 09003KT 22/09 A3004 RMK A01 T02240086  RH  042%=      5-min Rain = 0
KHA1 120305Z 08003KT 22/09 A3004 RMK A01 T02220088  RH  043%=      5-min Rain = 0
KHA1 120310Z 09004KT 22/09 A3004 RMK A01 T02200087  RH  044%=      5-min Rain = 0
KHA1 120315Z 09004KT 22/09 A3004 RMK A01 T02190088  RH  044%=      5-min Rain = 0
KHA1 120320Z 09004KT 22/09 A3004 RMK A01 T02190087  RH  044%=      5-min Rain = 0
KHA1 120325Z 09003KT 22/09 A3004 RMK A01 T02180088  RH  045%=      5-min Rain = 0
KHA1 120330Z 09003KT 22/09 A3004 RMK A01 T02170088  RH  045%=      5-min Rain = 0
KHA1 120335Z 09003KT 22/09 A3004 RMK A01 T02160089  RH  046%=      5-min Rain = 0
KHA1 120340Z 09004KT 22/09 A3004 RMK A01 T02150089  RH  046%=      5-min Rain = 0
KHA1 120345Z 09004KT 21/09 A3004 RMK A01 T02140088  RH  046%=      5-min Rain = 0
KHA1 120350Z 08004KT 21/09 A3005 RMK A01 T02130087  RH  046%=      5-min Rain = 0
KHA1 120355Z 08004KT 21/09 A3005 RMK A01 T02130088  RH  046%=      5-min Rain = 0
KHA1 120400Z 08004KT 21/09 A3005 RMK A01 T02110088  RH  046%=      5-min Rain = 0
KHA1 120405Z 09005KT 21/09 A3005 RMK A01 T02110086  RH  046%=      5-min Rain = 0
KHA1 120410Z 08004KT 21/09 A3005 RMK A01 T02110086  RH  046%=      5-min Rain = 0
KHA1 120415Z 09004KT 21/08 A3005 RMK A01 T02110084  RH  045%=      5-min Rain = 0
KHA1 120420Z 09005KT 21/09 A3005 RMK A01 T02110085  RH  046%=      5-min Rain = 0
KHA1 120425Z 09005KT 21/09 A3005 RMK A01 T02110086  RH  046%=      5-min Rain = 0
KHA1 120430Z 10005KT 21/09 A3005 RMK A01 T02120085  RH  045%=      5-min Rain = 0
KHA1 120435Z 10005KT 21/09 A3005 RMK A01 T02120085  RH  045%=      5-min Rain = 0
KHA1 120440Z 11004KT 21/09 A3005 RMK A01 T02110085  RH  046%=      5-min Rain = 0
KHA1 120445Z 11004KT 21/09 A3004 RMK A01 T02090086  RH  047%=      5-min Rain = 0
KHA1 120450Z 11004KT 21/09 A3004 RMK A01 T02060087  RH  047%=      5-min Rain = 0
KHA1 120455Z 11004KT 21/09 A3004 RMK A01 T02050086  RH  048%=      5-min Rain = 0

Page generated in 0.0094 seconds.